sensor_id;sensor_type;location;lat;lon;timestamp;P1;durP1;ratioP1;P2;durP2;ratioP2
6823;SDS011;58633;49.470;11.004;2023-02-14T00:02:05;41.40;;;19.97;;
6823;SDS011;58633;49.470;11.004;2023-02-14T00:04:31;39.00;;;20.27;;
6823;SDS011;58633;49.470;11.004;2023-02-14T00:06:57;40.97;;;19.93;;
6823;SDS011;58633;49.470;11.004;2023-02-14T00:09:22;39.40;;;19.10;;
6823;SDS011;58633;49.470;11.004;2023-02-14T00:11:48;35.70;;;18.87;;
6823;SDS011;58633;49.470;11.004;2023-02-14T00:14:14;37.87;;;19.60;;
6823;SDS011;58633;49.470;11.004;2023-02-14T00:17:00;39.60;;;19.83;;
6823;SDS011;58633;49.470;11.004;2023-02-14T00:19:25;36.90;;;18.67;;
6823;SDS011;58633;49.470;11.004;2023-02-14T00:21:51;36.23;;;18.53;;
6823;SDS011;58633;49.470;11.004;2023-02-14T00:24:21;37.07;;;19.10;;
6823;SDS011;58633;49.470;11.004;2023-02-14T00:26:49;38.17;;;19.53;;
6823;SDS011;58633;49.470;11.004;2023-02-14T00:29:16;36.63;;;18.87;;
6823;SDS011;58633;49.470;11.004;2023-02-14T00:31:43;37.23;;;18.33;;
6823;SDS011;58633;49.470;11.004;2023-02-14T00:34:09;37.63;;;19.40;;
6823;SDS011;58633;49.470;11.004;2023-02-14T00:36:35;36.80;;;19.23;;
6823;SDS011;58633;49.470;11.004;2023-02-14T00:39:05;39.27;;;19.67;;
6823;SDS011;58633;49.470;11.004;2023-02-14T00:41:32;35.63;;;18.60;;
6823;SDS011;58633;49.470;11.004;2023-02-14T00:43:58;36.50;;;18.60;;
6823;SDS011;58633;49.470;11.004;2023-02-14T00:46:24;37.00;;;19.37;;
6823;SDS011;58633;49.470;11.004;2023-02-14T00:48:50;37.90;;;17.90;;
6823;SDS011;58633;49.470;11.004;2023-02-14T00:51:17;36.67;;;18.10;;
6823;SDS011;58633;49.470;11.004;2023-02-14T00:53:43;37.93;;;19.17;;
6823;SDS011;58633;49.470;11.004;2023-02-14T00:56:10;36.90;;;19.60;;
6823;SDS011;58633;49.470;11.004;2023-02-14T00:58:36;38.07;;;19.43;;
6823;SDS011;58633;49.470;11.004;2023-02-14T01:01:02;34.10;;;18.10;;
6823;SDS011;58633;49.470;11.004;2023-02-14T01:03:28;34.97;;;18.63;;
6823;SDS011;58633;49.470;11.004;2023-02-14T01:05:53;33.90;;;18.50;;
6823;SDS011;58633;49.470;11.004;2023-02-14T01:08:19;37.50;;;18.00;;
6823;SDS011;58633;49.470;11.004;2023-02-14T01:10:45;35.30;;;18.67;;
6823;SDS011;58633;49.470;11.004;2023-02-14T01:13:10;35.20;;;18.27;;
6823;SDS011;58633;49.470;11.004;2023-02-14T01:15:38;36.43;;;19.20;;
6823;SDS011;58633;49.470;11.004;2023-02-14T01:18:05;36.43;;;19.23;;
6823;SDS011;58633;49.470;11.004;2023-02-14T01:20:31;37.00;;;18.77;;
6823;SDS011;58633;49.470;11.004;2023-02-14T01:22:57;38.47;;;19.33;;
6823;SDS011;58633;49.470;11.004;2023-02-14T01:25:23;34.93;;;18.23;;
6823;SDS011;58633;49.470;11.004;2023-02-14T01:27:49;40.43;;;20.20;;
6823;SDS011;58633;49.470;11.004;2023-02-14T01:30:15;34.40;;;19.23;;
6823;SDS011;58633;49.470;11.004;2023-02-14T01:32:40;35.53;;;18.57;;
6823;SDS011;58633;49.470;11.004;2023-02-14T01:35:06;34.23;;;18.73;;
6823;SDS011;58633;49.470;11.004;2023-02-14T01:37:32;35.50;;;18.90;;
6823;SDS011;58633;49.470;11.004;2023-02-14T01:39:58;37.70;;;19.10;;
6823;SDS011;58633;49.470;11.004;2023-02-14T01:42:24;38.43;;;18.60;;
6823;SDS011;58633;49.470;11.004;2023-02-14T01:44:54;38.87;;;19.90;;
6823;SDS011;58633;49.470;11.004;2023-02-14T01:47:22;37.13;;;19.33;;
6823;SDS011;58633;49.470;11.004;2023-02-14T01:49:51;38.97;;;19.70;;
6823;SDS011;58633;49.470;11.004;2023-02-14T01:52:29;37.47;;;19.60;;
6823;SDS011;58633;49.470;11.004;2023-02-14T01:55:04;40.27;;;20.47;;
6823;SDS011;58633;49.470;11.004;2023-02-14T01:57:39;37.77;;;20.07;;
6823;SDS011;58633;49.470;11.004;2023-02-14T02:00:12;36.33;;;19.23;;
6823;SDS011;58633;49.470;11.004;2023-02-14T02:02:57;38.87;;;19.70;;
6823;SDS011;58633;49.470;11.004;2023-02-14T02:05:25;42.07;;;21.53;;
6823;SDS011;58633;49.470;11.004;2023-02-14T02:07:51;39.43;;;20.63;;
6823;SDS011;58633;49.470;11.004;2023-02-14T02:10:19;40.40;;;20.50;;
6823;SDS011;58633;49.470;11.004;2023-02-14T02:12:45;38.87;;;20.27;;
6823;SDS011;58633;49.470;11.004;2023-02-14T02:15:12;38.47;;;20.23;;
6823;SDS011;58633;49.470;11.004;2023-02-14T02:29:10;37.93;;;18.43;;
6823;SDS011;58633;49.470;11.004;2023-02-14T02:46:00;31.90;;;16.77;;
6823;SDS011;58633;49.470;11.004;2023-02-14T02:48:56;33.63;;;17.70;;
6823;SDS011;58633;49.470;11.004;2023-02-14T02:51:32;35.67;;;17.33;;
6823;SDS011;58633;49.470;11.004;2023-02-14T02:54:30;36.47;;;17.73;;
6823;SDS011;58633;49.470;11.004;2023-02-14T02:57:02;37.83;;;17.57;;
6823;SDS011;58633;49.470;11.004;2023-02-14T02:59:35;35.27;;;17.20;;
6823;SDS011;58633;49.470;11.004;2023-02-14T03:04:31;36.77;;;18.03;;
6823;SDS011;58633;49.470;11.004;2023-02-14T03:07:18;35.73;;;17.97;;
6823;SDS011;58633;49.470;11.004;2023-02-14T03:10:02;41.93;;;19.33;;
6823;SDS011;58633;49.470;11.004;2023-02-14T03:17:43;40.20;;;19.20;;
6823;SDS011;58633;49.470;11.004;2023-02-14T03:20:38;37.53;;;19.03;;
6823;SDS011;58633;49.470;11.004;2023-02-14T03:23:16;39.03;;;18.97;;
6823;SDS011;58633;49.470;11.004;2023-02-14T03:26:08;44.17;;;19.97;;
6823;SDS011;58633;49.470;11.004;2023-02-14T03:29:02;39.53;;;19.80;;
6823;SDS011;58633;49.470;11.004;2023-02-14T03:37:13;43.83;;;19.47;;
6823;SDS011;58633;49.470;11.004;2023-02-14T03:40:05;44.17;;;20.33;;
6823;SDS011;58633;49.470;11.004;2023-02-14T03:42:36;44.50;;;20.53;;
6823;SDS011;58633;49.470;11.004;2023-02-14T03:45:12;42.67;;;19.87;;
6823;SDS011;58633;49.470;11.004;2023-02-14T03:47:46;42.27;;;20.17;;
6823;SDS011;58633;49.470;11.004;2023-02-14T03:50:16;44.07;;;20.80;;
6823;SDS011;58633;49.470;11.004;2023-02-14T03:52:43;43.63;;;19.50;;
6823;SDS011;58633;49.470;11.004;2023-02-14T03:55:12;41.77;;;19.40;;
6823;SDS011;58633;49.470;11.004;2023-02-14T03:57:49;40.67;;;19.17;;
6823;SDS011;58633;49.470;11.004;2023-02-14T04:00:19;40.37;;;19.70;;
6823;SDS011;58633;49.470;11.004;2023-02-14T04:02:47;41.90;;;19.67;;
6823;SDS011;58633;49.470;11.004;2023-02-14T04:05:18;42.30;;;20.17;;
6823;SDS011;58633;49.470;11.004;2023-02-14T04:07:49;41.00;;;19.63;;
6823;SDS011;58633;49.470;11.004;2023-02-14T04:10:19;41.50;;;19.37;;
6823;SDS011;58633;49.470;11.004;2023-02-14T04:12:46;41.40;;;19.20;;
6823;SDS011;58633;49.470;11.004;2023-02-14T04:15:12;44.40;;;19.77;;
6823;SDS011;58633;49.470;11.004;2023-02-14T04:17:39;41.70;;;19.90;;
6823;SDS011;58633;49.470;11.004;2023-02-14T04:20:24;38.30;;;18.57;;
6823;SDS011;58633;49.470;11.004;2023-02-14T04:22:50;43.13;;;18.77;;
6823;SDS011;58633;49.470;11.004;2023-02-14T04:25:16;40.70;;;18.27;;
6823;SDS011;58633;49.470;11.004;2023-02-14T04:27:42;38.67;;;19.33;;
6823;SDS011;58633;49.470;11.004;2023-02-14T04:30:08;42.90;;;18.93;;
6823;SDS011;58633;49.470;11.004;2023-02-14T04:32:34;41.70;;;18.87;;
6823;SDS011;58633;49.470;11.004;2023-02-14T04:34:59;42.33;;;19.50;;
6823;SDS011;58633;49.470;11.004;2023-02-14T04:37:25;44.40;;;19.53;;
6823;SDS011;58633;49.470;11.004;2023-02-14T04:39:51;42.17;;;19.40;;
6823;SDS011;58633;49.470;11.004;2023-02-14T04:42:16;41.97;;;19.53;;
6823;SDS011;58633;49.470;11.004;2023-02-14T04:44:42;41.33;;;18.97;;
6823;SDS011;58633;49.470;11.004;2023-02-14T04:47:08;39.87;;;18.17;;
6823;SDS011;58633;49.470;11.004;2023-02-14T04:49:34;40.07;;;17.97;;
6823;SDS011;58633;49.470;11.004;2023-02-14T04:51:59;43.23;;;19.33;;
6823;SDS011;58633;49.470;11.004;2023-02-14T04:54:25;39.70;;;18.73;;
6823;SDS011;58633;49.470;11.004;2023-02-14T04:56:51;40.43;;;18.40;;
6823;SDS011;58633;49.470;11.004;2023-02-14T04:59:16;42.03;;;19.30;;
6823;SDS011;58633;49.470;11.004;2023-02-14T05:01:42;41.73;;;19.03;;
6823;SDS011;58633;49.470;11.004;2023-02-14T05:04:08;42.70;;;18.80;;
6823;SDS011;58633;49.470;11.004;2023-02-14T05:06:34;43.27;;;18.63;;
6823;SDS011;58633;49.470;11.004;2023-02-14T05:08:59;38.57;;;17.60;;
6823;SDS011;58633;49.470;11.004;2023-02-14T05:11:26;43.07;;;18.60;;
6823;SDS011;58633;49.470;11.004;2023-02-14T05:13:52;43.13;;;19.30;;
6823;SDS011;58633;49.470;11.004;2023-02-14T05:16:18;40.50;;;17.63;;
6823;SDS011;58633;49.470;11.004;2023-02-14T05:18:44;41.67;;;18.17;;
6823;SDS011;58633;49.470;11.004;2023-02-14T05:21:10;38.23;;;16.97;;
6823;SDS011;58633;49.470;11.004;2023-02-14T05:23:36;38.87;;;17.73;;
6823;SDS011;58633;49.470;11.004;2023-02-14T05:26:02;40.57;;;17.77;;
6823;SDS011;58633;49.470;11.004;2023-02-14T05:28:28;41.10;;;18.30;;
6823;SDS011;58633;49.470;11.004;2023-02-14T05:30:53;39.50;;;18.17;;
6823;SDS011;58633;49.470;11.004;2023-02-14T05:33:20;41.20;;;18.27;;
6823;SDS011;58633;49.470;11.004;2023-02-14T05:35:46;41.47;;;18.40;;
6823;SDS011;58633;49.470;11.004;2023-02-14T05:38:12;41.77;;;18.27;;
6823;SDS011;58633;49.470;11.004;2023-02-14T05:40:38;41.23;;;18.77;;
6823;SDS011;58633;49.470;11.004;2023-02-14T05:43:04;42.50;;;19.43;;
6823;SDS011;58633;49.470;11.004;2023-02-14T05:45:30;41.00;;;18.17;;
6823;SDS011;58633;49.470;11.004;2023-02-14T05:47:55;41.33;;;18.50;;
6823;SDS011;58633;49.470;11.004;2023-02-14T05:50:21;40.90;;;17.07;;
6823;SDS011;58633;49.470;11.004;2023-02-14T05:52:46;38.40;;;17.70;;
6823;SDS011;58633;49.470;11.004;2023-02-14T05:55:12;38.63;;;16.53;;
6823;SDS011;58633;49.470;11.004;2023-02-14T05:57:37;40.17;;;18.50;;
6823;SDS011;58633;49.470;11.004;2023-02-14T06:00:04;45.03;;;19.30;;
6823;SDS011;58633;49.470;11.004;2023-02-14T06:02:31;37.97;;;17.23;;
6823;SDS011;58633;49.470;11.004;2023-02-14T06:04:56;40.13;;;17.43;;
6823;SDS011;58633;49.470;11.004;2023-02-14T06:07:22;38.37;;;17.30;;
6823;SDS011;58633;49.470;11.004;2023-02-14T06:09:48;40.37;;;18.27;;
6823;SDS011;58633;49.470;11.004;2023-02-14T06:12:14;46.10;;;18.13;;
6823;SDS011;58633;49.470;11.004;2023-02-14T06:14:39;41.63;;;18.80;;
6823;SDS011;58633;49.470;11.004;2023-02-14T06:17:06;43.27;;;18.40;;
6823;SDS011;58633;49.470;11.004;2023-02-14T06:19:32;44.90;;;19.70;;
6823;SDS011;58633;49.470;11.004;2023-02-14T06:21:58;41.20;;;17.70;;
6823;SDS011;58633;49.470;11.004;2023-02-14T06:24:23;43.43;;;18.17;;
6823;SDS011;58633;49.470;11.004;2023-02-14T06:26:49;40.33;;;17.63;;
6823;SDS011;58633;49.470;11.004;2023-02-14T06:29:15;39.57;;;17.37;;
6823;SDS011;58633;49.470;11.004;2023-02-14T06:31:41;40.20;;;17.97;;
6823;SDS011;58633;49.470;11.004;2023-02-14T06:34:06;39.77;;;18.03;;
6823;SDS011;58633;49.470;11.004;2023-02-14T06:36:32;43.27;;;18.03;;
6823;SDS011;58633;49.470;11.004;2023-02-14T06:38:57;41.13;;;18.13;;
6823;SDS011;58633;49.470;11.004;2023-02-14T06:41:23;41.60;;;17.23;;
6823;SDS011;58633;49.470;11.004;2023-02-14T06:43:48;39.47;;;17.30;;
6823;SDS011;58633;49.470;11.004;2023-02-14T06:46:14;42.53;;;17.67;;
6823;SDS011;58633;49.470;11.004;2023-02-14T06:48:41;38.43;;;17.13;;
6823;SDS011;58633;49.470;11.004;2023-02-14T06:51:06;37.67;;;15.63;;
6823;SDS011;58633;49.470;11.004;2023-02-14T06:53:32;39.20;;;17.20;;
6823;SDS011;58633;49.470;11.004;2023-02-14T06:55:57;36.70;;;16.80;;
6823;SDS011;58633;49.470;11.004;2023-02-14T06:58:23;39.17;;;16.47;;
6823;SDS011;58633;49.470;11.004;2023-02-14T07:00:48;39.10;;;16.80;;
6823;SDS011;58633;49.470;11.004;2023-02-14T07:03:14;39.67;;;17.27;;
6823;SDS011;58633;49.470;11.004;2023-02-14T07:05:40;38.20;;;16.13;;
6823;SDS011;58633;49.470;11.004;2023-02-14T07:08:05;36.50;;;16.50;;
6823;SDS011;58633;49.470;11.004;2023-02-14T07:10:32;39.50;;;16.53;;
6823;SDS011;58633;49.470;11.004;2023-02-14T07:12:58;37.47;;;16.70;;
6823;SDS011;58633;49.470;11.004;2023-02-14T07:15:24;33.67;;;14.93;;
6823;SDS011;58633;49.470;11.004;2023-02-14T07:17:50;35.37;;;15.93;;
6823;SDS011;58633;49.470;11.004;2023-02-14T07:20:16;36.23;;;16.00;;
6823;SDS011;58633;49.470;11.004;2023-02-14T07:22:42;34.47;;;15.57;;
6823;SDS011;58633;49.470;11.004;2023-02-14T07:25:08;35.37;;;16.57;;
6823;SDS011;58633;49.470;11.004;2023-02-14T07:27:34;33.93;;;16.13;;
6823;SDS011;58633;49.470;11.004;2023-02-14T07:30:00;36.47;;;15.23;;
6823;SDS011;58633;49.470;11.004;2023-02-14T07:32:26;36.23;;;15.77;;
6823;SDS011;58633;49.470;11.004;2023-02-14T07:34:51;35.27;;;14.80;;
6823;SDS011;58633;49.470;11.004;2023-02-14T07:37:17;36.17;;;15.83;;
6823;SDS011;58633;49.470;11.004;2023-02-14T07:39:43;33.53;;;15.33;;
6823;SDS011;58633;49.470;11.004;2023-02-14T07:42:09;37.07;;;16.43;;
6823;SDS011;58633;49.470;11.004;2023-02-14T07:44:35;34.63;;;16.17;;
6823;SDS011;58633;49.470;11.004;2023-02-14T07:47:08;38.80;;;16.07;;
6823;SDS011;58633;49.470;11.004;2023-02-14T07:49:34;35.33;;;15.63;;
6823;SDS011;58633;49.470;11.004;2023-02-14T07:52:00;40.80;;;16.00;;
6823;SDS011;58633;49.470;11.004;2023-02-14T07:54:26;39.97;;;16.07;;
6823;SDS011;58633;49.470;11.004;2023-02-14T07:56:52;33.37;;;14.63;;
6823;SDS011;58633;49.470;11.004;2023-02-14T07:59:18;39.70;;;16.93;;
6823;SDS011;58633;49.470;11.004;2023-02-14T08:01:43;35.30;;;16.60;;
6823;SDS011;58633;49.470;11.004;2023-02-14T08:04:09;36.37;;;16.33;;
6823;SDS011;58633;49.470;11.004;2023-02-14T08:06:37;41.10;;;16.57;;
6823;SDS011;58633;49.470;11.004;2023-02-14T08:09:03;35.77;;;15.47;;
6823;SDS011;58633;49.470;11.004;2023-02-14T08:11:28;32.83;;;15.00;;
6823;SDS011;58633;49.470;11.004;2023-02-14T08:14:12;33.97;;;15.33;;
6823;SDS011;58633;49.470;11.004;2023-02-14T08:16:38;33.37;;;14.97;;
6823;SDS011;58633;49.470;11.004;2023-02-14T08:19:04;33.83;;;15.30;;
6823;SDS011;58633;49.470;11.004;2023-02-14T08:21:30;36.23;;;15.70;;
6823;SDS011;58633;49.470;11.004;2023-02-14T08:23:56;31.43;;;14.33;;
6823;SDS011;58633;49.470;11.004;2023-02-14T08:26:22;37.27;;;15.10;;
6823;SDS011;58633;49.470;11.004;2023-02-14T08:28:48;34.27;;;16.37;;
6823;SDS011;58633;49.470;11.004;2023-02-14T08:31:20;34.50;;;15.50;;
6823;SDS011;58633;49.470;11.004;2023-02-14T08:33:51;33.53;;;14.70;;
6823;SDS011;58633;49.470;11.004;2023-02-14T08:36:17;31.97;;;14.20;;
6823;SDS011;58633;49.470;11.004;2023-02-14T08:38:43;35.03;;;13.80;;
6823;SDS011;58633;49.470;11.004;2023-02-14T08:41:11;30.10;;;13.77;;
6823;SDS011;58633;49.470;11.004;2023-02-14T08:43:37;30.00;;;13.93;;
6823;SDS011;58633;49.470;11.004;2023-02-14T08:46:03;32.20;;;14.03;;
6823;SDS011;58633;49.470;11.004;2023-02-14T08:48:28;32.17;;;14.27;;
6823;SDS011;58633;49.470;11.004;2023-02-14T08:50:54;31.33;;;14.63;;
6823;SDS011;58633;49.470;11.004;2023-02-14T08:53:19;35.20;;;14.80;;
6823;SDS011;58633;49.470;11.004;2023-02-14T08:55:46;35.73;;;16.13;;
6823;SDS011;58633;49.470;11.004;2023-02-14T08:58:12;37.20;;;15.83;;
6823;SDS011;58633;49.470;11.004;2023-02-14T09:00:37;38.77;;;15.90;;
6823;SDS011;58633;49.470;11.004;2023-02-14T09:03:03;36.53;;;16.23;;
6823;SDS011;58633;49.470;11.004;2023-02-14T09:05:29;40.10;;;16.03;;
6823;SDS011;58633;49.470;11.004;2023-02-14T09:07:54;40.23;;;17.57;;
6823;SDS011;58633;49.470;11.004;2023-02-14T09:10:21;38.57;;;16.23;;
6823;SDS011;58633;49.470;11.004;2023-02-14T09:12:47;39.67;;;16.87;;
6823;SDS011;58633;49.470;11.004;2023-02-14T09:15:12;37.33;;;16.43;;
6823;SDS011;58633;49.470;11.004;2023-02-14T09:17:38;39.50;;;16.40;;
6823;SDS011;58633;49.470;11.004;2023-02-14T09:20:04;43.27;;;16.17;;
6823;SDS011;58633;49.470;11.004;2023-02-14T09:22:32;36.43;;;15.10;;
6823;SDS011;58633;49.470;11.004;2023-02-14T09:24:58;35.50;;;14.67;;
6823;SDS011;58633;49.470;11.004;2023-02-14T09:27:25;35.20;;;14.90;;
6823;SDS011;58633;49.470;11.004;2023-02-14T09:29:51;34.87;;;15.87;;
6823;SDS011;58633;49.470;11.004;2023-02-14T09:32:16;36.87;;;15.87;;
6823;SDS011;58633;49.470;11.004;2023-02-14T09:34:42;37.17;;;16.50;;
6823;SDS011;58633;49.470;11.004;2023-02-14T09:37:09;34.67;;;15.00;;
6823;SDS011;58633;49.470;11.004;2023-02-14T09:39:35;38.10;;;15.50;;
6823;SDS011;58633;49.470;11.004;2023-02-14T09:44:41;32.73;;;14.40;;
6823;SDS011;58633;49.470;11.004;2023-02-14T09:50:06;34.70;;;14.07;;
6823;SDS011;58633;49.470;11.004;2023-02-14T09:52:38;34.13;;;14.07;;
6823;SDS011;58633;49.470;11.004;2023-02-14T09:55:08;29.70;;;13.63;;
6823;SDS011;58633;49.470;11.004;2023-02-14T09:57:44;33.37;;;13.80;;
6823;SDS011;58633;49.470;11.004;2023-02-14T10:00:34;28.47;;;12.73;;
6823;SDS011;58633;49.470;11.004;2023-02-14T10:03:08;30.87;;;14.37;;
6823;SDS011;58633;49.470;11.004;2023-02-14T10:06:05;30.87;;;14.03;;
6823;SDS011;58633;49.470;11.004;2023-02-14T10:09:14;33.20;;;14.30;;
6823;SDS011;58633;49.470;11.004;2023-02-14T10:11:52;32.77;;;13.27;;
6823;SDS011;58633;49.470;11.004;2023-02-14T10:14:22;31.80;;;13.37;;
6823;SDS011;58633;49.470;11.004;2023-02-14T10:16:55;31.17;;;14.03;;
6823;SDS011;58633;49.470;11.004;2023-02-14T10:19:30;37.57;;;15.97;;
6823;SDS011;58633;49.470;11.004;2023-02-14T10:22:14;40.33;;;14.53;;
6823;SDS011;58633;49.470;11.004;2023-02-14T10:27:35;30.63;;;14.30;;
6823;SDS011;58633;49.470;11.004;2023-02-14T10:30:20;34.63;;;14.10;;
6823;SDS011;58633;49.470;11.004;2023-02-14T10:32:48;32.47;;;15.43;;
6823;SDS011;58633;49.470;11.004;2023-02-14T10:35:24;32.87;;;14.37;;
6823;SDS011;58633;49.470;11.004;2023-02-14T10:38:29;31.40;;;14.67;;
6823;SDS011;58633;49.470;11.004;2023-02-14T10:47:13;33.10;;;15.73;;
6823;SDS011;58633;49.470;11.004;2023-02-14T10:49:57;29.27;;;13.47;;
6823;SDS011;58633;49.470;11.004;2023-02-14T10:52:38;30.47;;;13.60;;
6823;SDS011;58633;49.470;11.004;2023-02-14T10:55:14;29.63;;;13.83;;
6823;SDS011;58633;49.470;11.004;2023-02-14T10:57:45;30.07;;;13.57;;
6823;SDS011;58633;49.470;11.004;2023-02-14T11:02:42;23.10;;;11.90;;
6823;SDS011;58633;49.470;11.004;2023-02-14T11:05:22;23.63;;;12.13;;
6823;SDS011;58633;49.470;11.004;2023-02-14T11:08:12;26.13;;;12.60;;
6823;SDS011;58633;49.470;11.004;2023-02-14T11:10:39;25.80;;;12.83;;
6823;SDS011;58633;49.470;11.004;2023-02-14T11:13:25;24.17;;;11.80;;
6823;SDS011;58633;49.470;11.004;2023-02-14T11:15:50;26.30;;;13.57;;
6823;SDS011;58633;49.470;11.004;2023-02-14T11:18:21;23.53;;;12.23;;
6823;SDS011;58633;49.470;11.004;2023-02-14T11:21:01;24.83;;;12.50;;
6823;SDS011;58633;49.470;11.004;2023-02-14T11:23:33;24.43;;;12.70;;
6823;SDS011;58633;49.470;11.004;2023-02-14T11:26:00;24.93;;;12.43;;
6823;SDS011;58633;49.470;11.004;2023-02-14T11:28:29;23.00;;;12.33;;
6823;SDS011;58633;49.470;11.004;2023-02-14T11:30:54;24.53;;;13.00;;
6823;SDS011;58633;49.470;11.004;2023-02-14T11:33:22;23.43;;;11.57;;
6823;SDS011;58633;49.470;11.004;2023-02-14T11:35:57;26.17;;;12.40;;
6823;SDS011;58633;49.470;11.004;2023-02-14T11:38:34;22.90;;;11.00;;
6823;SDS011;58633;49.470;11.004;2023-02-14T11:41:02;23.50;;;12.20;;
6823;SDS011;58633;49.470;11.004;2023-02-14T11:46:03;22.57;;;11.53;;
6823;SDS011;58633;49.470;11.004;2023-02-14T11:48:57;29.00;;;16.10;;
6823;SDS011;58633;49.470;11.004;2023-02-14T11:51:38;32.77;;;17.07;;
6823;SDS011;58633;49.470;11.004;2023-02-14T11:54:13;23.20;;;12.93;;
6823;SDS011;58633;49.470;11.004;2023-02-14T11:57:07;26.33;;;13.70;;
6823;SDS011;58633;49.470;11.004;2023-02-14T11:59:41;25.63;;;12.83;;
6823;SDS011;58633;49.470;11.004;2023-02-14T12:04:59;24.30;;;12.30;;
6823;SDS011;58633;49.470;11.004;2023-02-14T12:12:50;27.33;;;13.53;;
6823;SDS011;58633;49.470;11.004;2023-02-14T12:16:08;26.40;;;12.80;;
6823;SDS011;58633;49.470;11.004;2023-02-14T12:18:28;26.10;;;12.10;;
6823;SDS011;58633;49.470;11.004;2023-02-14T12:21:21;24.83;;;12.33;;
6823;SDS011;58633;49.470;11.004;2023-02-14T12:24:12;23.27;;;12.47;;
6823;SDS011;58633;49.470;11.004;2023-02-14T12:26:59;23.97;;;12.83;;
6823;SDS011;58633;49.470;11.004;2023-02-14T12:29:37;26.07;;;12.30;;
6823;SDS011;58633;49.470;11.004;2023-02-14T12:32:20;23.57;;;12.67;;
6823;SDS011;58633;49.470;11.004;2023-02-14T12:34:59;27.10;;;12.77;;
6823;SDS011;58633;49.470;11.004;2023-02-14T12:40:32;25.77;;;12.70;;
6823;SDS011;58633;49.470;11.004;2023-02-14T12:43:12;24.83;;;13.33;;
6823;SDS011;58633;49.470;11.004;2023-02-14T12:51:36;24.43;;;12.93;;
6823;SDS011;58633;49.470;11.004;2023-02-14T13:05:11;24.47;;;12.53;;
6823;SDS011;58633;49.470;11.004;2023-02-14T13:07:51;26.80;;;12.37;;
6823;SDS011;58633;49.470;11.004;2023-02-14T13:10:43;22.33;;;12.10;;
6823;SDS011;58633;49.470;11.004;2023-02-14T13:15:51;23.10;;;12.00;;
6823;SDS011;58633;49.470;11.004;2023-02-14T13:18:38;23.60;;;12.27;;
6823;SDS011;58633;49.470;11.004;2023-02-14T13:21:21;20.07;;;11.57;;
6823;SDS011;58633;49.470;11.004;2023-02-14T13:23:50;24.07;;;12.37;;
6823;SDS011;58633;49.470;11.004;2023-02-14T13:26:30;23.33;;;12.07;;
6823;SDS011;58633;49.470;11.004;2023-02-14T13:29:03;24.73;;;11.30;;
6823;SDS011;58633;49.470;11.004;2023-02-14T13:31:33;22.23;;;11.57;;
6823;SDS011;58633;49.470;11.004;2023-02-14T13:34:02;24.67;;;12.03;;
6823;SDS011;58633;49.470;11.004;2023-02-14T13:36:33;22.67;;;11.30;;
6823;SDS011;58633;49.470;11.004;2023-02-14T13:39:01;26.03;;;11.63;;
6823;SDS011;58633;49.470;11.004;2023-02-14T13:41:28;19.90;;;10.87;;
6823;SDS011;58633;49.470;11.004;2023-02-14T13:43:58;23.57;;;11.50;;
6823;SDS011;58633;49.470;11.004;2023-02-14T13:51:59;20.20;;;10.60;;
6823;SDS011;58633;49.470;11.004;2023-02-14T13:54:32;18.73;;;10.33;;
6823;SDS011;58633;49.470;11.004;2023-02-14T13:57:29;21.33;;;10.57;;
6823;SDS011;58633;49.470;11.004;2023-02-14T14:02:42;23.07;;;11.60;;
6823;SDS011;58633;49.470;11.004;2023-02-14T14:10:48;17.87;;;11.20;;
6823;SDS011;58633;49.470;11.004;2023-02-14T14:18:55;22.60;;;11.03;;
6823;SDS011;58633;49.470;11.004;2023-02-14T14:21:31;20.93;;;10.83;;
6823;SDS011;58633;49.470;11.004;2023-02-14T14:24:50;20.17;;;10.87;;
6823;SDS011;58633;49.470;11.004;2023-02-14T14:26:51;24.37;;;11.20;;
6823;SDS011;58633;49.470;11.004;2023-02-14T14:29:59;22.87;;;10.57;;
6823;SDS011;58633;49.470;11.004;2023-02-14T14:32:36;19.80;;;10.03;;
6823;SDS011;58633;49.470;11.004;2023-02-14T14:42:44;20.07;;;11.20;;
6823;SDS011;58633;49.470;11.004;2023-02-14T14:45:22;21.10;;;10.47;;
6823;SDS011;58633;49.470;11.004;2023-02-14T14:47:50;19.57;;;11.20;;
6823;SDS011;58633;49.470;11.004;2023-02-14T14:50:22;23.00;;;11.17;;
6823;SDS011;58633;49.470;11.004;2023-02-14T14:52:54;20.63;;;10.82;;
6823;SDS011;58633;49.470;11.004;2023-02-14T14:55:25;23.30;;;11.23;;
6823;SDS011;58633;49.470;11.004;2023-02-14T14:57:55;20.17;;;10.40;;
6823;SDS011;58633;49.470;11.004;2023-02-14T15:00:23;19.90;;;10.80;;
6823;SDS011;58633;49.470;11.004;2023-02-14T15:02:58;18.20;;;10.82;;
6823;SDS011;58633;49.470;11.004;2023-02-14T15:05:48;21.58;;;11.48;;
6823;SDS011;58633;49.470;11.004;2023-02-14T15:08:27;21.73;;;11.77;;
6823;SDS011;58633;49.470;11.004;2023-02-14T15:11:11;21.60;;;11.35;;
6823;SDS011;58633;49.470;11.004;2023-02-14T15:14:01;23.92;;;11.27;;
6823;SDS011;58633;49.470;11.004;2023-02-14T15:16:38;27.80;;;11.25;;
6823;SDS011;58633;49.470;11.004;2023-02-14T15:19:09;20.92;;;11.23;;
6823;SDS011;58633;49.470;11.004;2023-02-14T15:21:41;18.88;;;11.63;;
6823;SDS011;58633;49.470;11.004;2023-02-14T15:24:10;21.15;;;12.05;;
6823;SDS011;58633;49.470;11.004;2023-02-14T15:26:38;18.65;;;11.63;;
6823;SDS011;58633;49.470;11.004;2023-02-14T15:29:18;17.60;;;10.80;;
6823;SDS011;58633;49.470;11.004;2023-02-14T15:31:46;20.40;;;11.85;;
6823;SDS011;58633;49.470;11.004;2023-02-14T15:34:13;19.40;;;10.88;;
6823;SDS011;58633;49.470;11.004;2023-02-14T15:36:38;17.70;;;10.50;;
6823;SDS011;58633;49.470;11.004;2023-02-14T15:39:05;18.90;;;11.73;;
6823;SDS011;58633;49.470;11.004;2023-02-14T15:41:34;19.45;;;10.48;;
6823;SDS011;58633;49.470;11.004;2023-02-14T15:43:59;21.10;;;11.68;;
6823;SDS011;58633;49.470;11.004;2023-02-14T15:48:54;20.23;;;11.73;;
6823;SDS011;58633;49.470;11.004;2023-02-14T15:51:23;19.80;;;11.63;;
6823;SDS011;58633;49.470;11.004;2023-02-14T15:53:52;25.33;;;11.60;;
6823;SDS011;58633;49.470;11.004;2023-02-14T15:56:46;19.90;;;11.63;;
6823;SDS011;58633;49.470;11.004;2023-02-14T16:01:53;20.48;;;11.50;;
6823;SDS011;58633;49.470;11.004;2023-02-14T16:04:23;20.35;;;12.07;;
6823;SDS011;58633;49.470;11.004;2023-02-14T16:09:36;17.70;;;11.00;;
6823;SDS011;58633;49.470;11.004;2023-02-14T16:15:00;21.33;;;11.37;;
6823;SDS011;58633;49.470;11.004;2023-02-14T16:17:32;22.63;;;12.67;;
6823;SDS011;58633;49.470;11.004;2023-02-14T16:19:59;24.20;;;11.60;;
6823;SDS011;58633;49.470;11.004;2023-02-14T16:23:18;22.97;;;12.43;;
6823;SDS011;58633;49.470;11.004;2023-02-14T16:25:46;27.30;;;12.20;;
6823;SDS011;58633;49.470;11.004;2023-02-14T16:28:12;23.97;;;12.00;;
6823;SDS011;58633;49.470;11.004;2023-02-14T16:30:38;21.73;;;12.47;;
6823;SDS011;58633;49.470;11.004;2023-02-14T16:33:05;24.70;;;13.43;;
6823;SDS011;58633;49.470;11.004;2023-02-14T16:35:35;22.57;;;11.23;;
6823;SDS011;58633;49.470;11.004;2023-02-14T16:38:01;22.67;;;11.87;;
6823;SDS011;58633;49.470;11.004;2023-02-14T16:40:27;20.90;;;11.57;;
6823;SDS011;58633;49.470;11.004;2023-02-14T16:42:53;22.73;;;12.87;;
6823;SDS011;58633;49.470;11.004;2023-02-14T16:45:18;21.40;;;12.90;;
6823;SDS011;58633;49.470;11.004;2023-02-14T16:47:47;24.53;;;12.83;;
6823;SDS011;58633;49.470;11.004;2023-02-14T16:50:13;21.80;;;11.43;;